Time;durP1;ratioP1;P1;durP2;ratioP2;P2;SDS_P1;SDS_P2;PMS_P1;PMS_P2;Temp;Humidity;BMP_temperature;BMP_pressure;BME280_temperature;BME280_humidity;BME280_pressure;Samples;Min_cycle;Max_cycle;Signal;HPM_P1;HPM_P2
2023/07/12 00:02:18;;;;;;;;;;;;;;;;;;5072358;28;19978;-68
2023/07/12 00:04:45;;;;;;;;;;;;;;;;;;5074543;28;19979;-67
2023/07/12 00:07:12;;;;;;;;;;;;;;;;;;5073242;28;20015;-68
2023/07/12 00:09:39;;;;;;;;;;;;;;;;;;5072272;28;20003;-67
2023/07/12 00:12:06;;;;;;;;;;;;;;;;;;5071419;28;19932;-67
2023/07/12 00:14:34;;;;;;;;;;;;;;;;;;5072937;28;20744;-67
2023/07/12 00:17:01;;;;;;;;;;;;;;;;;;5073852;28;20008;-67
2023/07/12 00:19:27;;;;;;;;;;;;;;;;;;5073665;28;20011;-67
2023/07/12 00:21:54;;;;;;;;;;;;;;;;;;5071113;28;20015;-67
2023/07/12 00:24:22;;;;;;;;;;;;;;;;;;5073078;28;20019;-67
2023/07/12 00:26:49;;;;;;;;;;;;;;;;;;5071993;28;19964;-67
2023/07/12 00:29:16;;;;;;;;;;;;;;;;;;5072387;28;19972;-68
2023/07/12 00:31:42;;;;;;;;;;;;;;;;;;5070313;28;20002;-67
2023/07/12 00:34:09;;;;;;;;;;;;;;;;;;5072019;28;20455;-67
2023/07/12 00:36:36;;;;;;;;;;;;;;;;;;5071359;28;19931;-67
2023/07/12 00:39:03;;;;;;;;;;;;;;;;;;5073043;28;20366;-67
2023/07/12 00:41:31;;;;;;;;;;;;;;;;;;5071454;28;19924;-66
2023/07/12 00:43:58;;;;;;;;;;;;;;;;;;5072610;28;20027;-67
2023/07/12 00:46:25;;;;;;;;;;;;;;;;;;5073136;28;19971;-67
2023/07/12 00:48:52;;;;;;;;;;;;;;;;;;5072262;28;19978;-67
2023/07/12 00:51:19;;;;;;;;;;;;;;;;;;5071088;28;19931;-65
2023/07/12 00:53:46;;;;;;;;;;;;;;;;;;5074898;28;19925;-65
2023/07/12 00:56:13;;;;;;;;;;;;;;;;;;5058720;28;20007;-67
2023/07/12 00:58:40;;;;;;;;;;;;;;;;;;5072695;28;20019;-65
2023/07/12 01:01:07;;;;;;;;;;;;;;;;;;5073622;28;20031;-65
2023/07/12 01:03:33;;;;;;;;;;;;;;;;;;5072653;28;19978;-65
2023/07/12 01:06:00;;;;;;;;;;;;;;;;;;5073480;28;19932;-65
2023/07/12 01:08:27;;;;;;;;;;;;;;;;;;5071960;28;20015;-65
2023/07/12 01:10:54;;;;;;;;;;;;;;;;;;5071224;28;20435;-65
2023/07/12 01:13:21;;;;;;;;;;;;;;;;;;5071862;28;20612;-65
2023/07/12 01:15:48;;;;;;;;;;;;;;;;;;5072287;28;19924;-65
2023/07/12 01:18:15;;;;;;;;;;;;;;;;;;5073317;28;19925;-65
2023/07/12 01:20:42;;;;;;;;;;;;;;;;;;5071857;28;20023;-66
2023/07/12 01:23:09;;;;;;;;;;;;;;;;;;5072708;28;20015;-66
2023/07/12 01:25:36;;;;;;;;;;;;;;;;;;5069145;28;19931;-66
2023/07/12 01:28:03;;;;;;;;;;;;;;;;;;5076361;28;20011;-65
2023/07/12 01:30:30;;;;;;;;;;;;;;;;;;5070451;28;19925;-65
2023/07/12 01:32:57;;;;;;;;;;;;;;;;;;5071980;28;20330;-65
2023/07/12 01:35:24;;;;;;;;;;;;;;;;;;5071485;28;20316;-65
2023/07/12 01:37:51;;;;;;;;;;;;;;;;;;5070931;28;20019;-65
2023/07/12 01:40:18;;;;;;;;;;;;;;;;;;5070586;28;19994;-65
2023/07/12 01:42:45;;;;;;;;;;;;;;;;;;5067907;28;20019;-66
2023/07/12 01:45:12;;;;;;;;;;;;;;;;;;5071439;28;19967;-65
2023/07/12 01:47:39;;;;;;;;;;;;;;;;;;5071328;28;19940;-65
2023/07/12 01:50:06;;;;;;;;;;;;;;;;;;5071840;28;20028;-65
2023/07/12 01:52:33;;;;;;;;;;;;;;;;;;5070661;28;20007;-65
2023/07/12 01:55:00;;;;;;;;;;;;;;;;;;5069335;28;20751;-65
2023/07/12 01:57:27;;;;;;;;;;;;;;;;;;5069941;28;20379;-65
2023/07/12 01:59:54;;;;;;;;;;;;;;;;;;5070753;28;20383;-66
2023/07/12 02:02:21;;;;;;;;;;;;;;;;;;5070943;28;20007;-66
2023/07/12 02:04:48;;;;;;;;;;;;;;;;;;5071800;28;19931;-65
2023/07/12 02:07:15;;;;;;;;;;;;;;;;;;5070839;28;19931;-66
2023/07/12 02:09:42;;;;;;;;;;;;;;;;;;5069877;28;20007;-65
2023/07/12 02:12:09;;;;;;;;;;;;;;;;;;5071264;28;20011;-65
2023/07/12 02:14:36;;;;;;;;;;;;;;;;;;5071924;28;20007;-65
2023/07/12 02:17:03;;;;;;;;;;;;;;;;;;5069996;28;20019;-65
2023/07/12 02:19:30;;;;;;;;;;;;;;;;;;5078181;28;19930;-65
2023/07/12 02:21:57;;;;;;;;;;;;;;;;;;5074077;28;19924;-65
2023/07/12 02:24:25;;;;;;;;;;;;;;;;;;5069443;28;20457;-65
2023/07/12 02:26:52;;;;;;;;;;;;;;;;;;5071001;28;20074;-65
2023/07/12 02:29:19;;;;;;;;;;;;;;;;;;5070827;28;19970;-65
2023/07/12 02:31:46;;;;;;;;;;;;;;;;;;5070776;28;20012;-65
2023/07/12 02:34:13;;;;;;;;;;;;;;;;;;5071134;28;19983;-66
2023/07/12 02:36:40;;;;;;;;;;;;;;;;;;5069918;28;20015;-66
2023/07/12 02:39:06;;;;;;;;;;;;;;;;;;5069397;28;19944;-66
2023/07/12 02:41:33;;;;;;;;;;;;;;;;;;5066528;28;20004;-65
2023/07/12 02:44:00;;;;;;;;;;;;;;;;;;5070226;28;19931;-65
2023/07/12 02:46:27;;;;;;;;;;;;;;;;;;5070366;28;19986;-65
2023/07/12 02:48:54;;;;;;;;;;;;;;;;;;5069933;28;19929;-65
2023/07/12 02:51:22;;;;;;;;;;;;;;;;;;5069913;28;20011;-66
2023/07/12 02:53:49;;;;;;;;;;;;;;;;;;5070478;28;19977;-65
2023/07/12 02:56:15;;;;;;;;;;;;;;;;;;5068893;28;19932;-65
2023/07/12 02:58:42;;;;;;;;;;;;;;;;;;5074359;28;20403;-65
2023/07/12 03:01:09;;;;;;;;;;;;;;;;;;5076285;28;20062;-66
2023/07/12 03:03:36;;;;;;;;;;;;;;;;;;5071077;28;20306;-65
2023/07/12 03:06:03;;;;;;;;;;;;;;;;;;5075762;28;20039;-66
2023/07/12 03:08:30;;;;;;;;;;;;;;;;;;5076141;28;20005;-66
2023/07/12 03:10:57;;;;;;;;;;;;;;;;;;5077369;28;19924;-65
2023/07/12 03:13:24;;;;;;;;;;;;;;;;;;5073199;28;19924;-65
2023/07/12 03:15:51;;;;;;;;;;;;;;;;;;5073889;28;19924;-66
2023/07/12 03:18:18;;;;;;;;;;;;;;;;;;5074716;28;19925;-66
2023/07/12 03:20:45;;;;;;;;;;;;;;;;;;5069206;28;20280;-65
2023/07/12 03:23:12;;;;;;;;;;;;;;;;;;5062963;28;19966;-65
2023/07/12 03:25:39;;;;;;;;;;;;;;;;;;5066975;28;20011;-65
2023/07/12 03:28:06;;;;;;;;;;;;;;;;;;5065865;28;20017;-66
2023/07/12 03:30:33;;;;;;;;;;;;;;;;;;5056549;28;19968;-65
2023/07/12 03:33:00;;;;;;;;;;;;;;;;;;5058658;28;20127;-64
2023/07/12 03:35:27;;;;;;;;;;;;;;;;;;5061286;28;20015;-64
2023/07/12 03:37:54;;;;;;;;;;;;;;;;;;5062433;28;19976;-64
2023/07/12 03:40:21;;;;;;;;;;;;;;;;;;5054937;28;20463;-64
2023/07/12 03:42:48;;;;;;;;;;;;;;;;;;5060726;28;19971;-64
2023/07/12 03:45:15;;;;;;;;;;;;;;;;;;5067649;28;20000;-64
2023/07/12 03:47:42;;;;;;;;;;;;;;;;;;5058541;28;19946;-64
2023/07/12 03:50:09;;;;;;;;;;;;;;;;;;5056411;28;20427;-64
2023/07/12 03:52:36;;;;;;;;;;;;;;;;;;5065476;28;19987;-65
2023/07/12 03:55:03;;;;;;;;;;;;;;;;;;5068204;28;19924;-65
2023/07/12 03:57:30;;;;;;;;;;;;;;;;;;5065349;28;20015;-64
2023/07/12 03:59:57;;;;;;;;;;;;;;;;;;5062587;28;19924;-64
2023/07/12 04:02:24;;;;;;;;;;;;;;;;;;5066968;28;19970;-64
2023/07/12 04:04:51;;;;;;;;;;;;;;;;;;5059363;28;20011;-64
2023/07/12 04:07:18;;;;;;;;;;;;;;;;;;5058167;28;20014;-64
2023/07/12 04:09:45;;;;;;;;;;;;;;;;;;5056287;28;20019;-64
2023/07/12 04:12:15;;;;;;;;;;;;;;;;;;5066457;28;20368;-65
2023/07/12 04:14:42;;;;;;;;;;;;;;;;;;5063640;28;19928;-65
2023/07/12 04:17:09;;;;;;;;;;;;;;;;;;5064508;28;20019;-64
2023/07/12 04:19:36;;;;;;;;;;;;;;;;;;5064796;28;19924;-65
2023/07/12 04:22:03;;;;;;;;;;;;;;;;;;5056018;28;20011;-65
2023/07/12 04:24:30;;;;;;;;;;;;;;;;;;5063695;28;20019;-65
2023/07/12 04:26:59;;;;;;;;;;;;;;;;;;5063611;28;20008;-65
2023/07/12 04:29:25;;;;;;;;;;;;;;;;;;5066608;28;19932;-66
2023/07/12 04:31:53;;;;;;;;;;;;;;;;;;5062828;28;19924;-66
2023/07/12 04:34:19;;;;;;;;;;;;;;;;;;5061300;28;20012;-66
2023/07/12 04:36:46;;;;;;;;;;;;;;;;;;5063912;28;20007;-66
2023/07/12 04:39:14;;;;;;;;;;;;;;;;;;5058403;28;19931;-66
2023/07/12 04:41:41;;;;;;;;;;;;;;;;;;5070970;28;20298;-66
2023/07/12 04:44:08;;;;;;;;;;;;;;;;;;5061475;28;20027;-67
2023/07/12 04:46:35;;;;;;;;;;;;;;;;;;5068362;28;20383;-66
2023/07/12 04:49:02;;;;;;;;;;;;;;;;;;5059080;28;19924;-66
2023/07/12 04:51:29;;;;;;;;;;;;;;;;;;5056759;28;19968;-66
2023/07/12 04:53:56;;;;;;;;;;;;;;;;;;5061743;28;19932;-66
2023/07/12 04:56:23;;;;;;;;;;;;;;;;;;5070962;28;20015;-66
2023/07/12 04:58:50;;;;;;;;;;;;;;;;;;5071470;28;19925;-66
2023/07/12 05:01:18;;;;;;;;;;;;;;;;;;5071684;28;19939;-67
2023/07/12 05:03:45;;;;;;;;;;;;;;;;;;5061738;28;19983;-66
2023/07/12 05:06:12;;;;;;;;;;;;;;;;;;5065529;28;19925;-65
2023/07/12 05:08:39;;;;;;;;;;;;;;;;;;5072853;28;20395;-66
2023/07/12 05:11:06;;;;;;;;;;;;;;;;;;5065806;28;19959;-65
2023/07/12 05:13:34;;;;;;;;;;;;;;;;;;5071639;28;20027;-65
2023/07/12 05:16:01;;;;;;;;;;;;;;;;;;5071836;28;19981;-66
2023/07/12 05:18:28;;;;;;;;;;;;;;;;;;5069740;28;19967;-66
2023/07/12 05:20:55;;;;;;;;;;;;;;;;;;5053185;28;19924;-65
2023/07/12 05:23:22;;;;;;;;;;;;;;;;;;5057528;28;20414;-66
2023/07/12 05:25:50;;;;;;;;;;;;;;;;;;5057019;28;20359;-66
2023/07/12 05:28:17;;;;;;;;;;;;;;;;;;5056138;28;19924;-65
2023/07/12 05:30:44;;;;;;;;;;;;;;;;;;5060563;28;20375;-66
2023/07/12 05:33:11;;;;;;;;;;;;;;;;;;5058662;28;19928;-66
2023/07/12 05:35:38;;;;;;;;;;;;;;;;;;5065820;28;19975;-66
2023/07/12 05:38:05;;;;;;;;;;;;;;;;;;5061211;28;19924;-65
2023/07/12 05:40:32;;;;;;;;;;;;;;;;;;5056695;28;20383;-65
2023/07/12 05:42:59;;;;;;;;;;;;;;;;;;5064199;28;19930;-65
2023/07/12 05:45:26;;;;;;;;;;;;;;;;;;5057660;28;20015;-65
2023/07/12 05:47:53;;;;;;;;;;;;;;;;;;5055554;28;19931;-65
2023/07/12 05:50:20;;;;;;;;;;;;;;;;;;5055925;28;20103;-65
2023/07/12 05:52:47;;;;;;;;;;;;;;;;;;5063778;28;19930;-66
2023/07/12 05:55:13;;;;;;;;;;;;;;;;;;5057100;28;19925;-66
2023/07/12 05:57:40;;;;;;;;;;;;;;;;;;5061115;28;20011;-67
2023/07/12 06:00:10;;;;;;;;;;;;;;;;;;5061537;28;19924;-66
2023/07/12 06:02:37;;;;;;;;;;;;;;;;;;5057101;28;19925;-66
2023/07/12 06:05:04;;;;;;;;;;;;;;;;;;5063054;28;20008;-66
2023/07/12 06:07:31;;;;;;;;;;;;;;;;;;5056814;28;19982;-66
2023/07/12 06:09:59;;;;;;;;;;;;;;;;;;5059058;28;19929;-66
2023/07/12 06:12:25;;;;;;;;;;;;;;;;;;5066334;28;19924;-67
2023/07/12 06:14:52;;;;;;;;;;;;;;;;;;5070437;28;20007;-67
2023/07/12 06:17:19;;;;;;;;;;;;;;;;;;5064798;28;19925;-67
2023/07/12 06:19:46;;;;;;;;;;;;;;;;;;5056121;28;20015;-67
2023/07/12 06:22:13;;;;;;;;;;;;;;;;;;5055557;28;20012;-67
2023/07/12 06:24:40;;;;;;;;;;;;;;;;;;5055836;28;20489;-67
2023/07/12 06:27:07;;;;;;;;;;;;;;;;;;5064936;28;19963;-67
2023/07/12 06:29:34;;;;;;;;;;;;;;;;;;5061551;28;19963;-67
2023/07/12 06:32:01;;;;;;;;;;;;;;;;;;5055747;28;19968;-67
2023/07/12 06:34:28;;;;;;;;;;;;;;;;;;5061637;28;20007;-67
2023/07/12 06:36:55;;;;;;;;;;;;;;;;;;5054560;28;20015;-67
2023/07/12 06:39:22;;;;;;;;;;;;;;;;;;5062583;28;19936;-67
2023/07/12 06:41:49;;;;;;;;;;;;;;;;;;5061179;28;20031;-67
2023/07/12 06:44:16;;;;;;;;;;;;;;;;;;5068972;28;20027;-67
2023/07/12 06:46:43;;;;;;;;;;;;;;;;;;5063388;28;20023;-67
2023/07/12 06:49:10;;;;;;;;;;;;;;;;;;5060335;28;20027;-67
2023/07/12 06:51:37;;;;;;;;;;;;;;;;;;5063260;28;20335;-67
2023/07/12 06:54:04;;;;;;;;;;;;;;;;;;5058050;28;20411;-67
2023/07/12 06:56:33;;;;;;;;;;;;;;;;;;5060506;28;20265;-67
2023/07/12 06:59:00;;;;;;;;;;;;;;;;;;5059875;28;20342;-67
2023/07/12 07:01:27;;;;;;;;;;;;;;;;;;5063997;28;19928;-68
2023/07/12 07:03:55;;;;;;;;;;;;;;;;;;5067751;28;19985;-67
2023/07/12 07:06:22;;;;;;;;;;;;;;;;;;5067641;28;19933;-67
2023/07/12 07:08:49;;;;;;;;;;;;;;;;;;5070258;28;19924;-67
2023/07/12 07:11:16;;;;;;;;;;;;;;;;;;5067936;28;20019;-67
2023/07/12 07:13:43;;;;;;;;;;;;;;;;;;5066444;28;19968;-67
2023/07/12 07:16:10;;;;;;;;;;;;;;;;;;5063375;28;19944;-67
2023/07/12 07:18:37;;;;;;;;;;;;;;;;;;5065784;28;19970;-67
2023/07/12 07:21:04;;;;;;;;;;;;;;;;;;5065638;28;20416;-68
2023/07/12 07:23:31;;;;;;;;;;;;;;;;;;5068011;28;19924;-67
2023/07/12 07:25:58;;;;;;;;;;;;;;;;;;5066804;28;20011;-68
2023/07/12 07:28:25;;;;;;;;;;;;;;;;;;5062700;28;20007;-67
2023/07/12 07:30:52;;;;;;;;;;;;;;;;;;5058409;28;20504;-67
2023/07/12 07:33:19;;;;;;;;;;;;;;;;;;5066247;28;20087;-67
2023/07/12 07:35:46;;;;;;;;;;;;;;;;;;5069043;28;19970;-68
2023/07/12 07:38:13;;;;;;;;;;;;;;;;;;5069703;28;20015;-68
2023/07/12 07:40:40;;;;;;;;;;;;;;;;;;5066835;28;21765;-67
2023/07/12 07:43:07;;;;;;;;;;;;;;;;;;5066811;28;20399;-68
2023/07/12 07:45:34;;;;;;;;;;;;;;;;;;5071637;28;19924;-66
2023/07/12 07:48:01;;;;;;;;;;;;;;;;;;5069857;28;19928;-69
2023/07/12 07:50:28;;;;;;;;;;;;;;;;;;5071464;28;20024;-68
2023/07/12 07:52:55;;;;;;;;;;;;;;;;;;5069039;28;20391;-68
2023/07/12 07:55:22;;;;;;;;;;;;;;;;;;5071882;28;20458;-68
2023/07/12 07:57:49;;;;;;;;;;;;;;;;;;5068019;28;20020;-69
2023/07/12 08:00:16;;;;;;;;;;;;;;;;;;5065974;28;20015;-69
2023/07/12 08:02:43;;;;;;;;;;;;;;;;;;5066856;28;20504;-69
2023/07/12 08:05:10;;;;;;;;;;;;;;;;;;5068352;28;20031;-68
2023/07/12 08:07:37;;;;;;;;;;;;;;;;;;5063716;28;20023;-68
2023/07/12 08:10:04;;;;;;;;;;;;;;;;;;5066834;28;20383;-68
2023/07/12 08:12:31;;;;;;;;;;;;;;;;;;5067266;28;19960;-70
2023/07/12 08:14:58;;;;;;;;;;;;;;;;;;5054792;28;20035;-68
2023/07/12 08:17:25;;;;;;;;;;;;;;;;;;5067116;28;19932;-66
2023/07/12 08:19:53;;;;;;;;;;;;;;;;;;5066796;28;20027;-68
2023/07/12 08:22:20;;;;;;;;;;;;;;;;;;5069248;28;19924;-69
2023/07/12 08:24:47;;;;;;;;;;;;;;;;;;5064809;28;19931;-68
2023/07/12 08:27:16;;;;;;;;;;;;;;;;;;5070386;28;20454;-68
2023/07/12 08:29:42;;;;;;;;;;;;;;;;;;5070989;28;20433;-68
2023/07/12 08:32:09;;;;;;;;;;;;;;;;;;5069544;28;20358;-69
2023/07/12 08:34:37;;;;;;;;;;;;;;;;;;5071014;28;20439;-69
2023/07/12 08:37:04;;;;;;;;;;;;;;;;;;5062811;28;19982;-68
2023/07/12 08:39:31;;;;;;;;;;;;;;;;;;5067308;28;19993;-68
2023/07/12 08:41:57;;;;;;;;;;;;;;;;;;5064967;28;19967;-68
2023/07/12 08:44:24;;;;;;;;;;;;;;;;;;5072935;28;19931;-68
2023/07/12 08:46:51;;;;;;;;;;;;;;;;;;5072757;28;20392;-69
2023/07/12 08:49:19;;;;;;;;;;;;;;;;;;5072935;28;19932;-68
2023/07/12 08:51:47;;;;;;;;;;;;;;;;;;5073711;28;19955;-68
2023/07/12 08:54:14;;;;;;;;;;;;;;;;;;5068995;28;20344;-68
2023/07/12 08:56:42;;;;;;;;;;;;;;;;;;5071371;28;19924;-68
2023/07/12 08:59:08;;;;;;;;;;;;;;;;;;5071119;28;20383;-69
2023/07/12 09:01:36;;;;;;;;;;;;;;;;;;5072648;28;20365;-70
2023/07/12 09:04:03;;;;;;;;;;;;;;;;;;5069969;28;19952;-69
2023/07/12 09:06:30;;;;;;;;;;;;;;;;;;5072714;28;19976;-69
2023/07/12 09:08:57;;;;;;;;;;;;;;;;;;5071004;28;19998;-68
2023/07/12 09:11:24;;;;;;;;;;;;;;;;;;5071228;28;19932;-68
2023/07/12 09:13:51;;;;;;;;;;;;;;;;;;5065768;28;19976;-69
2023/07/12 09:16:19;;;;;;;;;;;;;;;;;;5067488;28;20023;-68
2023/07/12 09:18:46;;;;;;;;;;;;;;;;;;5069279;28;19930;-68
2023/07/12 09:21:13;;;;;;;;;;;;;;;;;;5072228;28;19971;-68
2023/07/12 09:23:40;;;;;;;;;;;;;;;;;;5067582;28;19925;-68
2023/07/12 09:26:07;;;;;;;;;;;;;;;;;;5069678;28;19935;-69
2023/07/12 09:28:34;;;;;;;;;;;;;;;;;;5071261;28;20027;-69
2023/07/12 09:31:01;;;;;;;;;;;;;;;;;;5071007;28;19931;-69
2023/07/12 09:33:28;;;;;;;;;;;;;;;;;;5070877;28;20393;-69
2023/07/12 09:36:00;;;;;;;;;;;;;;;;;;5071956;28;20359;-69
2023/07/12 09:38:27;;;;;;;;;;;;;;;;;;5070289;28;19925;-69
2023/07/12 09:40:54;;;;;;;;;;;;;;;;;;5074384;28;19932;-70
2023/07/12 09:43:21;;;;;;;;;;;;;;;;;;5070382;28;19960;-69
2023/07/12 09:45:48;;;;;;;;;;;;;;;;;;5071212;28;20007;-68
2023/07/12 09:48:15;;;;;;;;;;;;;;;;;;5071322;28;20019;-68
2023/07/12 09:50:42;;;;;;;;;;;;;;;;;;5071498;28;19967;-69
2023/07/12 09:53:09;;;;;;;;;;;;;;;;;;5071742;28;19924;-69
2023/07/12 09:55:36;;;;;;;;;;;;;;;;;;5071583;28;20425;-69
2023/07/12 09:58:03;;;;;;;;;;;;;;;;;;5071533;28;20320;-69
2023/07/12 10:00:30;;;;;;;;;;;;;;;;;;5070068;28;20295;-70
2023/07/12 10:02:57;;;;;;;;;;;;;;;;;;5071586;28;20003;-70
2023/07/12 10:05:24;;;;;;;;;;;;;;;;;;5071520;28;20341;-69
2023/07/12 10:07:52;;;;;;;;;;;;;;;;;;5070464;28;19924;-68
2023/07/12 10:10:20;;;;;;;;;;;;;;;;;;5060057;28;20407;-68
2023/07/12 10:12:47;;;;;;;;;;;;;;;;;;5067863;28;19977;-68
2023/07/12 10:15:14;;;;;;;;;;;;;;;;;;5071843;28;19932;-68
2023/07/12 10:17:41;;;;;;;;;;;;;;;;;;5069598;28;20015;-68
2023/07/12 10:20:08;;;;;;;;;;;;;;;;;;5071540;28;20391;-70
2023/07/12 10:22:35;;;;;;;;;;;;;;;;;;5070052;28;20016;-68
2023/07/12 10:25:02;;;;;;;;;;;;;;;;;;5070303;28;20056;-68
2023/07/12 10:27:29;;;;;;;;;;;;;;;;;;5070399;28;19968;-68
2023/07/12 10:29:57;;;;;;;;;;;;;;;;;;5071507;28;20020;-69
2023/07/12 10:32:24;;;;;;;;;;;;;;;;;;5069936;28;20333;-68
2023/07/12 10:34:51;;;;;;;;;;;;;;;;;;5070767;28;19970;-68
2023/07/12 10:37:18;;;;;;;;;;;;;;;;;;5070681;28;19976;-69
2023/07/12 10:39:45;;;;;;;;;;;;;;;;;;5070951;28;19931;-69
2023/07/12 10:42:12;;;;;;;;;;;;;;;;;;5070581;28;19924;-69
2023/07/12 10:44:39;;;;;;;;;;;;;;;;;;5070626;28;20010;-69
2023/07/12 10:47:06;;;;;;;;;;;;;;;;;;5069838;28;19970;-69
2023/07/12 10:49:33;;;;;;;;;;;;;;;;;;5076911;28;19924;-69
2023/07/12 10:52:00;;;;;;;;;;;;;;;;;;5068181;28;19924;-69
2023/07/12 10:54:27;;;;;;;;;;;;;;;;;;5060640;28;19929;-70
2023/07/12 10:56:54;;;;;;;;;;;;;;;;;;5063794;28;19933;-70
2023/07/12 10:59:21;;;;;;;;;;;;;;;;;;5078590;28;19924;-71
2023/07/12 11:01:48;;;;;;;;;;;;;;;;;;5077438;28;19924;-71
2023/07/12 11:04:15;;;;;;;;;;;;;;;;;;5068845;28;20024;-71
2023/07/12 11:06:42;;;;;;;;;;;;;;;;;;5072797;28;19931;-69
2023/07/12 11:09:09;;;;;;;;;;;;;;;;;;5066776;28;20103;-70
2023/07/12 11:11:37;;;;;;;;;;;;;;;;;;5066968;28;19924;-69
2023/07/12 11:14:04;;;;;;;;;;;;;;;;;;5069308;28;19987;-70
2023/07/12 11:16:32;;;;;;;;;;;;;;;;;;5069652;28;19925;-70
2023/07/12 11:18:59;;;;;;;;;;;;;;;;;;5074599;28;20387;-70
2023/07/12 11:21:26;;;;;;;;;;;;;;;;;;5075045;28;19992;-70
2023/07/12 11:23:53;;;;;;;;;;;;;;;;;;5084932;28;19924;-69
2023/07/12 11:26:20;;;;;;;;;;;;;;;;;;5074724;28;19928;-71
2023/07/12 11:28:47;;;;;;;;;;;;;;;;;;5070051;28;20337;-70
2023/07/12 11:31:14;;;;;;;;;;;;;;;;;;5068945;28;19924;-70
2023/07/12 11:33:42;;;;;;;;;;;;;;;;;;5073712;28;19924;-70
2023/07/12 11:36:13;;;;;;;;;;;;;;;;;;5073602;28;19934;-69
2023/07/12 11:38:40;;;;;;;;;;;;;;;;;;5065132;28;19936;-70
2023/07/12 11:41:07;;;;;;;;;;;;;;;;;;5071191;28;20031;-69
2023/07/12 11:43:34;;;;;;;;;;;;;;;;;;5072518;28;19982;-69
2023/07/12 11:46:01;;;;;;;;;;;;;;;;;;5073678;28;19925;-69
2023/07/12 11:48:28;;;;;;;;;;;;;;;;;;5071933;28;20464;-70
2023/07/12 11:50:55;;;;;;;;;;;;;;;;;;5071740;28;20467;-69
2023/07/12 11:53:22;;;;;;;;;;;;;;;;;;5074654;28;19947;-69
2023/07/12 11:55:49;;;;;;;;;;;;;;;;;;5073550;28;19974;-68
2023/07/12 11:58:16;;;;;;;;;;;;;;;;;;5072772;28;19978;-69
2023/07/12 12:00:43;;;;;;;;;;;;;;;;;;5064746;28;19925;-69
2023/07/12 12:03:10;;;;;;;;;;;;;;;;;;5068138;28;19928;-69
2023/07/12 12:05:38;;;;;;;;;;;;;;;;;;5070918;28;20394;-68
2023/07/12 12:08:05;;;;;;;;;;;;;;;;;;5068195;28;19956;-69
2023/07/12 12:10:32;;;;;;;;;;;;;;;;;;5071512;28;20482;-69
2023/07/12 12:12:59;;;;;;;;;;;;;;;;;;5073844;28;19925;-68
2023/07/12 12:15:26;;;;;;;;;;;;;;;;;;5077200;28;20445;-69
2023/07/12 12:17:54;;;;;;;;;;;;;;;;;;5073999;28;20015;-69
2023/07/12 12:20:21;;;;;;;;;;;;;;;;;;5073521;28;19932;-68
2023/07/12 12:22:48;;;;;;;;;;;;;;;;;;5069414;28;19960;-68
2023/07/12 12:25:15;;;;;;;;;;;;;;;;;;5071508;28;19924;-68
2023/07/12 12:27:43;;;;;;;;;;;;;;;;;;5072847;28;19924;-69
2023/07/12 12:30:10;;;;;;;;;;;;;;;;;;5064899;28;19932;-70
2023/07/12 12:32:38;;;;;;;;;;;;;;;;;;5071693;28;20385;-69
2023/07/12 12:35:05;;;;;;;;;;;;;;;;;;5064357;28;19974;-70
2023/07/12 12:37:32;;;;;;;;;;;;;;;;;;5071482;28;20023;-70
2023/07/12 12:39:59;;;;;;;;;;;;;;;;;;5072649;28;19931;-70
2023/07/12 12:42:26;;;;;;;;;;;;;;;;;;5072189;28;19928;-70
2023/07/12 12:44:54;;;;;;;;;;;;;;;;;;5071284;28;19924;-70
2023/07/12 12:47:21;;;;;;;;;;;;;;;;;;5073395;28;20030;-70
2023/07/12 12:49:48;;;;;;;;;;;;;;;;;;5072597;28;19928;-71
2023/07/12 12:52:15;;;;;;;;;;;;;;;;;;5065643;28;19990;-69
2023/07/12 12:54:43;;;;;;;;;;;;;;;;;;5072356;28;19999;-70
2023/07/12 12:57:10;;;;;;;;;;;;;;;;;;5069599;28;19925;-70
2023/07/12 12:59:37;;;;;;;;;;;;;;;;;;5066910;28;19972;-70
2023/07/12 13:02:04;;;;;;;;;;;;;;;;;;5068926;28;19924;-73
2023/07/12 13:04:31;;;;;;;;;;;;;;;;;;5071659;28;20402;-74
2023/07/12 13:06:58;;;;;;;;;;;;;;;;;;5069331;28;20362;-73
2023/07/12 13:09:25;;;;;;;;;;;;;;;;;;5064558;28;19964;-73
2023/07/12 13:11:52;;;;;;;;;;;;;;;;;;5072868;28;19978;-73
2023/07/12 13:14:19;;;;;;;;;;;;;;;;;;5069794;28;19924;-72
2023/07/12 13:16:46;;;;;;;;;;;;;;;;;;5063934;28;20023;-72
2023/07/12 13:19:13;;;;;;;;;;;;;;;;;;5062964;28;19924;-73
2023/07/12 13:21:40;;;;;;;;;;;;;;;;;;5071028;28;20265;-73
2023/07/12 13:24:07;;;;;;;;;;;;;;;;;;5064034;28;19940;-72
2023/07/12 13:26:34;;;;;;;;;;;;;;;;;;5066628;28;19924;-73
2023/07/12 13:29:01;;;;;;;;;;;;;;;;;;5064698;28;20033;-72
2023/07/12 13:31:28;;;;;;;;;;;;;;;;;;5068429;28;20027;-72
2023/07/12 13:33:55;;;;;;;;;;;;;;;;;;5069679;28;19947;-72
2023/07/12 13:36:22;;;;;;;;;;;;;;;;;;5065455;28;20434;-72
2023/07/12 13:38:49;;;;;;;;;;;;;;;;;;5066449;28;19968;-70
2023/07/12 13:41:16;;;;;;;;;;;;;;;;;;5064555;28;19983;-73
2023/07/12 13:43:46;;;;;;;;;;;;;;;;;;5069261;28;20391;-71
2023/07/12 13:46:13;;;;;;;;;;;;;;;;;;5067043;28;20291;-72
2023/07/12 13:48:40;;;;;;;;;;;;;;;;;;5069832;28;20000;-73
2023/07/12 13:51:07;;;;;;;;;;;;;;;;;;5067321;28;19929;-72
2023/07/12 13:53:34;;;;;;;;;;;;;;;;;;5068490;28;20363;-72
2023/07/12 13:56:01;;;;;;;;;;;;;;;;;;5065177;28;20291;-70
2023/07/12 13:58:28;;;;;;;;;;;;;;;;;;5068508;28;19971;-70
2023/07/12 14:00:55;;;;;;;;;;;;;;;;;;5069985;28;19924;-69
2023/07/12 14:03:22;;;;;;;;;;;;;;;;;;5072430;28;20375;-70
2023/07/12 14:05:49;;;;;;;;;;;;;;;;;;5066943;28;20417;-70
2023/07/12 14:08:16;;;;;;;;;;;;;;;;;;5064201;28;19931;-69
2023/07/12 14:10:43;;;;;;;;;;;;;;;;;;5066919;28;19928;-69
2023/07/12 14:13:10;;;;;;;;;;;;;;;;;;5070652;28;20015;-70
2023/07/12 14:15:37;;;;;;;;;;;;;;;;;;5064909;28;19982;-69
2023/07/12 14:18:04;;;;;;;;;;;;;;;;;;5070391;28;19931;-69
2023/07/12 14:20:31;;;;;;;;;;;;;;;;;;5070820;28;19931;-69
2023/07/12 14:22:58;;;;;;;;;;;;;;;;;;5069807;28;20123;-70
2023/07/12 14:25:25;;;;;;;;;;;;;;;;;;5070366;28;19924;-70
2023/07/12 14:27:52;;;;;;;;;;;;;;;;;;5069066;28;20015;-70
2023/07/12 14:30:19;;;;;;;;;;;;;;;;;;5071486;28;20028;-71
2023/07/12 14:32:46;;;;;;;;;;;;;;;;;;5070477;28;19983;-70
2023/07/12 14:35:13;;;;;;;;;;;;;;;;;;5054560;28;19929;-70
2023/07/12 14:37:40;;;;;;;;;;;;;;;;;;5070591;28;19929;-70
2023/07/12 14:40:07;;;;;;;;;;;;;;;;;;5068439;28;20596;-71
2023/07/12 14:42:34;;;;;;;;;;;;;;;;;;5068394;28;19932;-70
2023/07/12 14:45:01;;;;;;;;;;;;;;;;;;5067422;28;19931;-69
2023/07/12 14:47:28;;;;;;;;;;;;;;;;;;5077227;28;20396;-70
2023/07/12 14:49:55;;;;;;;;;;;;;;;;;;5074580;28;20053;-69
2023/07/12 14:52:22;;;;;;;;;;;;;;;;;;5071399;28;20007;-70
2023/07/12 14:54:49;;;;;;;;;;;;;;;;;;5076042;28;19975;-69
2023/07/12 14:57:16;;;;;;;;;;;;;;;;;;5069767;28;20621;-69
2023/07/12 14:59:43;;;;;;;;;;;;;;;;;;5074154;28;19924;-70
2023/07/12 15:02:10;;;;;;;;;;;;;;;;;;5071386;28;20031;-69
2023/07/12 15:04:37;;;;;;;;;;;;;;;;;;5071858;28;19925;-70
2023/07/12 15:07:04;;;;;;;;;;;;;;;;;;5076006;28;19924;-70
2023/07/12 15:09:31;;;;;;;;;;;;;;;;;;5073486;28;19931;-70
2023/07/12 15:11:59;;;;;;;;;;;;;;;;;;5074986;28;19936;-70
2023/07/12 15:14:26;;;;;;;;;;;;;;;;;;5074862;28;19931;-71
2023/07/12 15:16:54;;;;;;;;;;;;;;;;;;5058727;28;19925;-70
2023/07/12 15:19:21;;;;;;;;;;;;;;;;;;5064350;28;20451;-70
2023/07/12 15:21:48;;;;;;;;;;;;;;;;;;5073743;28;19924;-70
2023/07/12 15:24:16;;;;;;;;;;;;;;;;;;5075287;28;19964;-70
2023/07/12 15:26:43;;;;;;;;;;;;;;;;;;5074984;28;19925;-70
2023/07/12 15:29:10;;;;;;;;;;;;;;;;;;5075197;28;20394;-70
2023/07/12 15:31:37;;;;;;;;;;;;;;;;;;5075137;28;19924;-71
2023/07/12 15:34:05;;;;;;;;;;;;;;;;;;5074747;28;20326;-70
2023/07/12 15:36:32;;;;;;;;;;;;;;;;;;5074527;28;19968;-70
2023/07/12 15:38:59;;;;;;;;;;;;;;;;;;5074134;28;20343;-70
2023/07/12 15:41:26;;;;;;;;;;;;;;;;;;5071591;28;19976;-69
2023/07/12 15:43:54;;;;;;;;;;;;;;;;;;5071685;28;20011;-71
2023/07/12 15:46:21;;;;;;;;;;;;;;;;;;5074624;28;19924;-69
2023/07/12 15:48:48;;;;;;;;;;;;;;;;;;5070664;28;19982;-69
2023/07/12 15:51:15;;;;;;;;;;;;;;;;;;5071832;28;19925;-68
2023/07/12 15:53:43;;;;;;;;;;;;;;;;;;5069536;28;19940;-70
2023/07/12 15:56:10;;;;;;;;;;;;;;;;;;5069013;28;19970;-72
2023/07/12 15:58:37;;;;;;;;;;;;;;;;;;5071580;28;19925;-69
2023/07/12 16:01:04;;;;;;;;;;;;;;;;;;5073694;28;19959;-69
2023/07/12 16:03:31;;;;;;;;;;;;;;;;;;5067970;28;19924;-68
2023/07/12 16:05:58;;;;;;;;;;;;;;;;;;5060941;28;20265;-68
2023/07/12 16:08:25;;;;;;;;;;;;;;;;;;5065085;28;19964;-69
2023/07/12 16:10:52;;;;;;;;;;;;;;;;;;5062555;28;20019;-69
2023/07/12 16:13:21;;;;;;;;;;;;;;;;;;5074119;28;20345;-68
2023/07/12 16:15:48;;;;;;;;;;;;;;;;;;5074150;28;19924;-68
2023/07/12 16:18:16;;;;;;;;;;;;;;;;;;5068533;28;20003;-68
2023/07/12 16:20:43;;;;;;;;;;;;;;;;;;5068535;28;19925;-69
2023/07/12 16:23:10;;;;;;;;;;;;;;;;;;5061946;28;20247;-68
2023/07/12 16:25:37;;;;;;;;;;;;;;;;;;5070299;28;20023;-68
2023/07/12 16:28:04;;;;;;;;;;;;;;;;;;5073798;28;19959;-68
2023/07/12 16:30:31;;;;;;;;;;;;;;;;;;5073807;28;20390;-68
2023/07/12 16:32:59;;;;;;;;;;;;;;;;;;5071960;28;19946;-69
2023/07/12 16:35:27;;;;;;;;;;;;;;;;;;5072670;28;19925;-68
2023/07/12 16:37:54;;;;;;;;;;;;;;;;;;5073403;28;19935;-68
2023/07/12 16:40:21;;;;;;;;;;;;;;;;;;5074292;28;20015;-68
2023/07/12 16:42:48;;;;;;;;;;;;;;;;;;5073953;28;20019;-68
2023/07/12 16:45:15;;;;;;;;;;;;;;;;;;5072062;28;19939;-69